Airfield :
LOGIN :

Register | Disclaimer

   EN    FR    IT 

 










Legend :    VFR   Marginal VFR   IFR   Intensive IFR   Very Intensive IFR
Visi :
Ceiling :
>= 8 km
>= 3000ft
5 to 8 km
1000 to 3000 ft
1500m to 5 km
500 to 1000 ft
800 to 1500m
200 to 500 ft
< 800m
< 200 ft
Symbols :   Thunderstorms  Fog  Heavy snow  Heavy precipitations  Wind > 20 kt
SIGMETs :     Misc.  Thunderstorms  Icing  Turbulence  Mountain Waves  Volcanic Ashes






- Airport Elevation : 10 ft
- IATA code : AAL


EKYT - Aalborg

CURRENT METAR :
  • 070054Z AUTO 24014KT 4700 -SHRA BR FEW005/// BKN007/// OVC009/// 08/08 Q0988

EXPIRED METARs :
  • 070035Z AUTO 24013KT 4800 BR FEW006/// BKN008/// OVC010/// 09/08 Q0988
  • 070021Z AUTO 24013KT 9999 -SHRA SCT007/// BKN009/// OVC011/// 09/08 Q0988
  • 062350Z AUTO 23013KT 9999 -SHRA FEW008/// BKN011/// BKN016/// 09/08 Q0988
  • 062331Z AUTO 24014KT 9999 FEW008/// BKN011/// OVC018/// 09/08 Q0988
  • 062320Z AUTO 24013KT 9999 FEW008/// SCT012/// BKN015/// BKN019/// 09/08 Q0988
  • 062255Z AUTO 23016KT 9999 FEW004/// BKN009/// BKN013/// 09/09 Q0988
  • 062245Z AUTO 23015KT 3900 -SHRA BR FEW004/// SCT007/// BKN009/// BKN013/// 09/09 Q0988
  • 062231Z AUTO 22013KT 2900 -SHRA FEW004/// SCT007/// BKN009/// BKN011/// 09/09 Q0988
  • 062225Z AUTO 22013KT 4700 -SHRA BR FEW004/// SCT007/// BKN009/// BKN013/// 09/09 Q0988
  • 062202Z AUTO 22013KT 4900 FEW003/// SCT006/// BKN008/// OVC011/// 09/09 Q0989

TAF TAF EKYT
Valid from the 07 at 00:00 until the 08 at 00:00 UTC


062321Z 0700/0724 23015KT 9999 SCT008 BKN020
TEMPO 0700/0703 3000 SHRA BKN008 BKN015CB
BECMG 0702/0705 28018KT
TEMPO 0705/0712 29020G32KT
BECMG 0712/0715 26010KT
BECMG 0722/0724 21008KT



MET'MAP, your aeronautical weather chart ! - Copyright ORBIFLY December 2007 - Disclaimer

ORBIFLY MET'MAP TEAM :

Programming & Development : Alexandra Zaïnal
Concept & original design : Baudouin d'Aumeries
Assistance for programming : Marc-Olivier Méhu
Technical & hardware support : Manuel Goepfert

Contact : metmap@orbifly.com




SOURCES & CREDITS :

   NOAA